Time;durP1;ratioP1;P1;durP2;ratioP2;P2;SDS_P1;SDS_P2;PMS_P1;PMS_P2;Temp;Humidity;BMP_temperature;BMP_pressure;BME280_temperature;BME280_humidity;BME280_pressure;Samples;Min_cycle;Max_cycle;Signal;HPM_P1;HPM_P2
2022/10/07 00:00:55;;;;;;;9.63;1.60;;;9.50;99.90;;;;;;5126036;27;20425;-66
2022/10/07 00:03:22;;;;;;;9.43;2.10;;;9.50;99.90;;;;;;5136146;27;20037;-66
2022/10/07 00:06:18;;;;;;;13.13;1.83;;;9.50;99.90;;;;;;5121899;27;20047;-66
2022/10/07 00:08:47;;;;;;;7.93;1.63;;;9.60;99.90;;;;;;5145802;27;20129;-66
2022/10/07 00:11:22;;;;;;;9.68;1.63;;;9.50;99.90;;;;;;5147802;27;20372;-65
2022/10/07 00:13:57;;;;;;;10.75;1.95;;;9.50;99.90;;;;;;5147754;27;20038;-66
2022/10/07 00:16:26;;;;;;;8.95;1.60;;;9.40;99.90;;;;;;5147225;27;20373;-66
2022/10/07 00:18:56;;;;;;;14.90;1.67;;;9.40;99.90;;;;;;5129315;27;20339;-66
2022/10/07 00:21:23;;;;;;;8.38;1.85;;;9.40;99.90;;;;;;5130088;27;20126;-66
2022/10/07 00:23:48;;;;;;;5.63;1.38;;;9.40;99.90;;;;;;5128313;27;20538;-66
2022/10/07 00:26:20;;;;;;;7.55;1.58;;;9.40;99.90;;;;;;5148585;27;20031;-67
2022/10/07 00:28:47;;;;;;;4.57;1.70;;;9.40;99.90;;;;;;5146667;27;20085;-67
2022/10/07 00:31:21;;;;;;;14.13;1.77;;;9.40;99.90;;;;;;5147723;27;20035;-66
2022/10/07 00:33:47;;;;;;;10.20;1.83;;;9.40;99.90;;;;;;5128804;27;20059;-67
2022/10/07 00:36:19;;;;;;;12.55;1.70;;;9.30;99.90;;;;;;5147412;27;20062;-66
2022/10/07 00:38:50;;;;;;;7.43;1.48;;;9.30;99.90;;;;;;5148142;27;20046;-66
2022/10/07 00:41:19;;;;;;;13.68;1.95;;;9.30;99.90;;;;;;5146966;27;20054;-65
2022/10/07 00:43:45;;;;;;;8.02;1.92;;;9.30;99.90;;;;;;5111750;27;20479;-66
2022/10/07 00:46:29;;;;;;;8.23;1.95;;;9.20;99.90;;;;;;5147821;27;20042;-66
2022/10/07 00:48:58;;;;;;;11.93;1.58;;;9.20;99.90;;;;;;5147106;27;20053;-66
2022/10/07 00:51:25;;;;;;;11.00;2.03;;;9.20;99.90;;;;;;5111986;27;20083;-66
2022/10/07 00:53:53;;;;;;;10.10;1.90;;;9.20;99.90;;;;;;5126669;27;20072;-66
2022/10/07 00:56:19;;;;;;;5.93;1.75;;;9.20;99.90;;;;;;5148522;27;20050;-66
2022/10/07 00:58:48;;;;;;;6.80;1.48;;;9.20;99.90;;;;;;5145966;27;20396;-66
2022/10/07 01:01:14;;;;;;;8.93;2.10;;;9.20;99.90;;;;;;5147096;27;20047;-66
2022/10/07 01:03:41;;;;;;;11.73;1.77;;;9.20;99.90;;;;;;5146769;27;20222;-66
2022/10/07 01:06:06;;;;;;;10.18;1.90;;;9.10;99.90;;;;;;5147411;27;20046;-66
2022/10/07 01:08:32;;;;;;;8.32;1.88;;;9.10;99.90;;;;;;5146284;27;20480;-66
2022/10/07 01:11:12;;;;;;;18.00;2.10;;;9.20;99.90;;;;;;5125450;27;20503;-66
2022/10/07 01:14:17;;;;;;;12.98;1.88;;;9.10;99.90;;;;;;5147215;27;20089;-66
2022/10/07 01:16:54;;;;;;;10.85;1.77;;;9.20;99.90;;;;;;5146014;27;20050;-66
2022/10/07 01:19:48;;;;;;;5.15;1.42;;;9.10;99.90;;;;;;5127234;27;20430;-66
2022/10/07 01:22:39;;;;;;;9.77;2.03;;;9.10;99.90;;;;;;5146947;27;20145;-66
2022/10/07 01:25:45;;;;;;;13.18;2.40;;;9.10;99.90;;;;;;5135102;27;20558;-66
2022/10/07 01:28:39;;;;;;;11.82;3.28;;;9.10;99.90;;;;;;5128622;27;20098;-66
2022/10/07 01:31:09;;;;;;;6.28;1.67;;;9.10;99.90;;;;;;5119498;27;20066;-66
2022/10/07 01:33:38;;;;;;;8.80;1.77;;;9.10;99.90;;;;;;5146269;27;20039;-66
2022/10/07 01:36:14;;;;;;;7.75;1.85;;;9.10;99.90;;;;;;5142006;27;20705;-66
2022/10/07 01:38:46;;;;;;;10.98;2.50;;;9.00;99.90;;;;;;5127565;27;20055;-67
2022/10/07 01:41:15;;;;;;;11.25;2.40;;;9.00;99.90;;;;;;5146831;27;20428;-66
2022/10/07 01:43:43;;;;;;;12.52;2.50;;;9.00;99.90;;;;;;5128221;27;20594;-67
2022/10/07 01:46:14;;;;;;;13.82;1.90;;;9.00;99.90;;;;;;5127361;27;20031;-67
2022/10/07 01:48:40;;;;;;;11.32;2.00;;;9.00;99.90;;;;;;5128690;27;20039;-66
2022/10/07 01:51:07;;;;;;;7.10;2.13;;;9.00;99.90;;;;;;5146532;27;20122;-67
2022/10/07 01:54:09;;;;;;;11.82;2.17;;;9.00;99.90;;;;;;5128666;27;20046;-67
2022/10/07 01:56:54;;;;;;;13.02;2.17;;;9.00;99.90;;;;;;5145169;27;20038;-66
2022/10/07 01:59:28;;;;;;;12.05;2.13;;;9.00;99.90;;;;;;5135266;27;20523;-67
2022/10/07 02:02:20;;;;;;;12.82;2.65;;;9.00;99.90;;;;;;5145656;27;20509;-67
2022/10/07 02:04:55;;;;;;;5.53;1.75;;;8.90;99.90;;;;;;5132457;27;20058;-66
2022/10/07 02:07:50;;;;;;;9.57;2.50;;;9.00;99.90;;;;;;5128402;27;20035;-66
2022/10/07 02:10:40;;;;;;;5.50;2.10;;;8.90;99.90;;;;;;5110973;27;20396;-66
2022/10/07 02:13:29;;;;;;;6.10;1.92;;;8.90;99.90;;;;;;5115055;27;20051;-66
2022/10/07 02:16:18;;;;;;;4.63;1.83;;;8.90;99.90;;;;;;5147038;27;20081;-66
2022/10/07 02:18:47;;;;;;;10.18;2.15;;;8.90;99.90;;;;;;5146575;27;20049;-67
2022/10/07 02:21:17;;;;;;;13.23;2.08;;;8.80;99.90;;;;;;5126764;27;20126;-66
2022/10/07 02:23:45;;;;;;;6.50;2.10;;;8.80;99.90;;;;;;5147616;27;20436;-66
2022/10/07 02:26:15;;;;;;;13.85;2.63;;;8.80;99.90;;;;;;5150351;27;20114;-67
2022/10/07 02:28:42;;;;;;;13.48;2.40;;;8.80;99.90;;;;;;5149501;27;20106;-66
2022/10/07 02:31:11;;;;;;;8.65;2.42;;;8.80;99.90;;;;;;5150391;27;20492;-66
2022/10/07 02:33:39;;;;;;;11.23;2.08;;;8.80;99.90;;;;;;5113988;27;20043;-66
2022/10/07 02:36:12;;;;;;;10.25;2.28;;;8.80;99.90;;;;;;5149777;27;20027;-66
2022/10/07 02:38:38;;;;;;;7.18;2.38;;;8.80;99.90;;;;;;5131006;27;20397;-66
2022/10/07 02:41:30;;;;;;;12.00;2.20;;;8.80;99.90;;;;;;5150123;27;20107;-70
2022/10/07 02:44:12;;;;;;;10.05;2.58;;;8.80;99.90;;;;;;5131318;27;20049;-66
2022/10/07 02:46:48;;;;;;;11.98;2.40;;;8.80;99.90;;;;;;5150619;27;20526;-67
2022/10/07 02:49:17;;;;;;;15.80;2.95;;;8.80;99.90;;;;;;5115075;27;20064;-66
2022/10/07 02:52:07;;;;;;;11.93;2.30;;;8.90;99.90;;;;;;5148382;27;20051;-66
2022/10/07 02:54:41;;;;;;;8.40;2.30;;;8.90;99.90;;;;;;5131685;27;20038;-66
2022/10/07 02:57:09;;;;;;;14.00;2.40;;;8.90;99.90;;;;;;5150607;27;20477;-66
2022/10/07 02:59:38;;;;;;;14.05;2.65;;;8.90;99.90;;;;;;5131935;27;20050;-66
2022/10/07 03:02:09;;;;;;;8.35;2.30;;;8.90;99.90;;;;;;5133224;27;20053;-66
2022/10/07 03:04:34;;;;;;;10.45;2.42;;;8.90;99.90;;;;;;5151788;27;20042;-67
2022/10/07 03:07:00;;;;;;;10.05;2.08;;;8.90;99.90;;;;;;5131651;27;20047;-66
2022/10/07 03:09:27;;;;;;;13.68;2.20;;;8.90;99.90;;;;;;5143375;27;20043;-66
2022/10/07 03:11:53;;;;;;;8.25;2.58;;;8.90;99.90;;;;;;5140650;27;20560;-66
2022/10/07 03:14:19;;;;;;;15.38;2.90;;;8.90;99.90;;;;;;5130679;27;20046;-73
2022/10/07 03:16:44;;;;;;;15.00;2.38;;;8.90;99.90;;;;;;5149295;27;20529;-67
2022/10/07 03:19:10;;;;;;;7.68;2.20;;;8.90;99.90;;;;;;5130250;27;20051;-66
2022/10/07 03:21:36;;;;;;;10.18;2.50;;;8.90;99.90;;;;;;5149079;27;20052;-66
2022/10/07 03:24:03;;;;;;;15.73;3.60;;;8.90;99.90;;;;;;5148930;27;20073;-66
2022/10/07 03:26:32;;;;;;;19.10;2.47;;;8.90;99.90;;;;;;5148271;27;20053;-66
2022/10/07 03:28:59;;;;;;;16.55;3.13;;;8.90;99.90;;;;;;5130826;27;20507;-66
2022/10/07 03:31:25;;;;;;;13.13;2.08;;;8.90;99.90;;;;;;5112912;27;20058;-67
2022/10/07 03:33:50;;;;;;;11.43;2.53;;;8.80;99.90;;;;;;5130339;27;20047;-67
2022/10/07 03:36:16;;;;;;;10.73;2.50;;;8.80;99.90;;;;;;5111804;27;20125;-66
2022/10/07 03:38:42;;;;;;;13.27;2.15;;;8.90;99.90;;;;;;5149366;27;20058;-66
2022/10/07 03:41:08;;;;;;;16.45;3.13;;;8.80;99.90;;;;;;5148323;27;20047;-67
2022/10/07 03:43:33;;;;;;;11.13;2.50;;;8.80;99.90;;;;;;5130181;27;20498;-66
2022/10/07 03:46:01;;;;;;;13.85;2.47;;;8.80;99.90;;;;;;5147998;27;20113;-66
2022/10/07 03:48:29;;;;;;;13.60;2.55;;;8.80;99.90;;;;;;5130152;27;20052;-67
2022/10/07 03:50:56;;;;;;;10.57;2.33;;;8.80;99.90;;;;;;5148085;27;20114;-66
2022/10/07 03:53:23;;;;;;;14.80;2.58;;;8.70;99.90;;;;;;5129987;27;20042;-66
2022/10/07 03:55:49;;;;;;;13.63;2.40;;;8.80;99.90;;;;;;5129781;27;20053;-66
2022/10/07 03:58:15;;;;;;;10.38;1.95;;;8.80;99.90;;;;;;5148590;27;20117;-66
2022/10/07 04:00:41;;;;;;;5.55;2.03;;;8.70;99.90;;;;;;5112670;27;20897;-66
2022/10/07 04:03:07;;;;;;;7.72;2.28;;;8.70;99.90;;;;;;5148080;27;20113;-66
2022/10/07 04:05:35;;;;;;;11.32;2.17;;;8.70;99.90;;;;;;5147819;27;20065;-66
2022/10/07 04:08:03;;;;;;;14.68;2.33;;;8.70;99.90;;;;;;5148059;27;20118;-67
2022/10/07 04:10:28;;;;;;;21.27;2.38;;;8.70;99.90;;;;;;5115493;27;20408;-66
2022/10/07 04:12:54;;;;;;;8.90;2.55;;;8.70;99.90;;;;;;5129162;27;20050;-66
2022/10/07 04:15:20;;;;;;;13.35;2.40;;;8.70;99.90;;;;;;5148298;27;20402;-66
2022/10/07 04:17:47;;;;;;;14.40;2.53;;;8.70;99.90;;;;;;5147527;27;20046;-66
2022/10/07 04:20:15;;;;;;;9.63;2.20;;;8.70;99.90;;;;;;5128375;27;20543;-66
2022/10/07 04:22:41;;;;;;;11.82;1.92;;;8.70;99.90;;;;;;5148058;27;20576;-66
2022/10/07 04:27:56;;;;;;;11.73;2.38;;;8.70;99.90;;;;;;5147706;27;20034;-66
2022/10/07 04:30:24;;;;;;;10.63;2.85;;;8.60;99.90;;;;;;5128894;27;20422;-66
2022/10/07 04:32:50;;;;;;;8.13;2.15;;;8.70;99.90;;;;;;5128998;27;20157;-66
2022/10/07 04:35:20;;;;;;;18.48;2.50;;;8.70;99.90;;;;;;5147484;27;20047;-66
2022/10/07 04:37:50;;;;;;;10.05;2.47;;;8.60;99.90;;;;;;5129310;27;20078;-75
2022/10/07 04:40:18;;;;;;;10.95;3.08;;;8.60;99.90;;;;;;5147649;27;20106;-66
2022/10/07 04:45:28;;;;;;;10.18;2.13;;;8.60;99.90;;;;;;5115739;27;20043;-66
2022/10/07 04:47:54;;;;;;;11.40;3.75;;;8.60;99.90;;;;;;5111302;27;20042;-66
2022/10/07 04:50:19;;;;;;;12.52;2.58;;;8.60;99.90;;;;;;5124763;27;20108;-66
2022/10/07 04:52:45;;;;;;;12.95;2.50;;;8.60;99.90;;;;;;5139480;27;20038;-66
2022/10/07 04:55:13;;;;;;;14.50;2.40;;;8.60;99.90;;;;;;5147248;27;20384;-67
2022/10/07 04:57:39;;;;;;;10.85;2.88;;;8.60;99.90;;;;;;5129596;27;20541;-65
2022/10/07 05:00:07;;;;;;;15.27;3.40;;;8.60;99.90;;;;;;5146963;27;20400;-66
2022/10/07 05:02:33;;;;;;;15.48;3.47;;;8.60;99.90;;;;;;5128144;27;20047;-66
2022/10/07 05:04:59;;;;;;;15.15;3.25;;;8.60;99.90;;;;;;5128249;27;20053;-66
2022/10/07 05:07:25;;;;;;;10.88;2.67;;;8.60;99.90;;;;;;5128078;27;20379;-67
2022/10/07 05:09:51;;;;;;;13.20;3.47;;;8.50;99.90;;;;;;5119483;27;20035;-67
2022/10/07 05:12:17;;;;;;;12.18;2.85;;;8.60;99.90;;;;;;5146625;27;20527;-66
2022/10/07 05:14:44;;;;;;;9.10;2.33;;;8.60;99.90;;;;;;5128864;27;20066;-66
2022/10/07 05:17:10;;;;;;;9.48;2.63;;;8.60;99.90;;;;;;5146586;27;20060;-67
2022/10/07 05:19:36;;;;;;;15.05;2.53;;;8.50;99.90;;;;;;5147184;27;20031;-66
2022/10/07 05:22:02;;;;;;;16.88;3.10;;;8.50;99.90;;;;;;5145771;27;20540;-66
2022/10/07 05:24:28;;;;;;;15.57;3.53;;;8.50;99.90;;;;;;5147413;27;20035;-66
2022/10/07 05:26:54;;;;;;;14.20;2.63;;;8.50;99.90;;;;;;5127907;27;20042;-67
2022/10/07 05:29:20;;;;;;;13.38;2.92;;;8.50;99.90;;;;;;5110469;27;20099;-66
2022/10/07 05:31:47;;;;;;;12.20;2.45;;;8.50;99.90;;;;;;5127191;27;20130;-66
2022/10/07 05:34:14;;;;;;;14.75;2.50;;;8.50;99.90;;;;;;5145454;27;20080;-66
2022/10/07 05:36:41;;;;;;;17.73;3.40;;;8.50;99.90;;;;;;5128247;27;20485;-66
2022/10/07 05:39:07;;;;;;;17.50;2.30;;;8.50;99.90;;;;;;5147061;27;20172;-67
2022/10/07 05:41:33;;;;;;;13.65;2.67;;;8.50;99.90;;;;;;5138177;27;20085;-66
2022/10/07 05:44:00;;;;;;;10.23;3.25;;;8.50;99.90;;;;;;5130239;27;20070;-67
2022/10/07 05:46:26;;;;;;;10.45;2.60;;;8.50;99.90;;;;;;5098495;27;20053;-67
2022/10/07 05:48:52;;;;;;;16.73;3.42;;;8.50;99.90;;;;;;5101389;27;20079;-67
2022/10/07 05:51:20;;;;;;;17.73;3.25;;;8.50;99.90;;;;;;5127188;27;20107;-66
2022/10/07 05:53:46;;;;;;;13.38;3.38;;;8.50;99.90;;;;;;5121433;27;20042;-67
2022/10/07 05:56:15;;;;;;;11.00;2.90;;;8.50;99.90;;;;;;5128460;27;20031;-67
2022/10/07 05:58:41;;;;;;;23.45;3.88;;;8.50;99.90;;;;;;5127033;27;20035;-67
2022/10/07 06:01:13;;;;;;;14.85;3.10;;;8.50;99.90;;;;;;5124540;27;20042;-67
2022/10/07 06:03:38;;;;;;;14.40;3.03;;;8.60;99.90;;;;;;5148614;27;20424;-92
2022/10/07 06:06:04;;;;;;;18.02;2.65;;;8.60;99.90;;;;;;5111323;27;20082;-66
2022/10/07 06:08:30;;;;;;;16.27;3.28;;;8.60;99.90;;;;;;5113878;27;20162;-66
2022/10/07 06:13:53;;;;;;;10.75;2.90;;;8.60;99.90;;;;;;5132230;27;20047;-92
2022/10/07 06:16:20;;;;;;;19.65;3.78;;;8.70;99.90;;;;;;5133120;27;20047;-66
2022/10/07 06:18:46;;;;;;;13.43;2.70;;;8.70;99.90;;;;;;5112043;27;20038;-67
2022/10/07 06:21:12;;;;;;;13.65;3.38;;;8.80;99.90;;;;;;5139475;27;20142;-66
2022/10/07 06:23:38;;;;;;;20.90;3.00;;;8.70;99.90;;;;;;5111072;27;20465;-67
2022/10/07 06:26:06;;;;;;;18.73;3.72;;;8.80;99.90;;;;;;5096540;27;20074;-66
2022/10/07 06:28:38;;;;;;;14.95;3.05;;;8.90;99.90;;;;;;5139025;27;20070;-67
2022/10/07 06:31:24;;;;;;;19.15;3.25;;;8.90;99.90;;;;;;5131566;27;20432;-66
2022/10/07 06:33:50;;;;;;;13.55;3.08;;;9.00;99.90;;;;;;5150228;27;20103;-66
2022/10/07 06:36:17;;;;;;;14.98;3.35;;;9.00;99.90;;;;;;5116039;27;20038;-67
2022/10/07 06:38:47;;;;;;;15.68;4.38;;;9.10;99.90;;;;;;5102029;27;20043;-67
2022/10/07 06:41:13;;;;;;;15.45;3.35;;;9.30;99.90;;;;;;5116991;27;20122;-66
2022/10/07 06:43:39;;;;;;;13.27;3.00;;;9.40;99.90;;;;;;5113617;27;20048;-66
2022/10/07 06:46:07;;;;;;;15.18;3.00;;;9.60;99.90;;;;;;5149683;27;20528;-66
2022/10/07 06:48:34;;;;;;;23.13;3.58;;;9.70;99.90;;;;;;5149576;27;20035;-66
2022/10/07 06:51:02;;;;;;;18.33;3.55;;;9.80;99.90;;;;;;5131993;27;20046;-67
2022/10/07 06:53:28;;;;;;;19.73;3.25;;;9.90;99.90;;;;;;5149563;27;20039;-67
2022/10/07 06:55:56;;;;;;;19.10;3.80;;;10.10;99.90;;;;;;5150027;27;20495;-67
2022/10/07 06:58:24;;;;;;;12.23;3.38;;;10.10;99.90;;;;;;5129975;27;20042;-67
2022/10/07 07:00:51;;;;;;;15.13;3.55;;;10.20;99.90;;;;;;5148992;27;20088;-66
2022/10/07 07:03:17;;;;;;;19.27;3.42;;;10.30;99.90;;;;;;5130700;27;20054;-66
2022/10/07 07:05:44;;;;;;;19.67;3.63;;;10.40;99.90;;;;;;5149661;27;20091;-66
2022/10/07 07:08:10;;;;;;;14.73;3.20;;;10.40;99.90;;;;;;5149414;27;20078;-68
2022/10/07 07:10:41;;;;;;;20.45;3.38;;;10.50;99.90;;;;;;5119061;27;20042;-66
2022/10/07 07:13:07;;;;;;;23.45;3.42;;;10.60;99.90;;;;;;5131354;27;20118;-66
2022/10/07 07:15:34;;;;;;;11.45;3.05;;;10.50;99.90;;;;;;5112314;27;20118;-66
2022/10/07 07:18:00;;;;;;;20.17;3.80;;;10.50;99.90;;;;;;5113334;27;20043;-67
2022/10/07 07:20:33;;;;;;;20.48;3.55;;;10.50;99.90;;;;;;5129909;27;20090;-66
2022/10/07 07:23:00;;;;;;;12.07;3.40;;;10.60;99.90;;;;;;5132406;27;20087;-66
2022/10/07 07:25:25;;;;;;;19.77;4.18;;;10.60;99.90;;;;;;5093784;27;20087;-67
2022/10/07 07:27:51;;;;;;;14.10;3.58;;;10.70;99.90;;;;;;5130699;27;20077;-67
2022/10/07 07:30:21;;;;;;;20.83;3.97;;;10.80;99.90;;;;;;5114198;27;20066;-67
2022/10/07 07:32:48;;;;;;;19.77;4.00;;;10.90;99.90;;;;;;5147611;27;20051;-68
2022/10/07 07:35:14;;;;;;;17.08;3.70;;;11.00;99.90;;;;;;5120148;27;20300;-66
2022/10/07 07:37:40;;;;;;;22.00;5.07;;;11.10;99.90;;;;;;5141093;27;20618;-67
2022/10/07 07:40:07;;;;;;;25.08;4.43;;;11.30;99.90;;;;;;5126956;27;20480;-67
2022/10/07 07:42:33;;;;;;;14.63;2.95;;;11.40;99.90;;;;;;5109254;27;20235;-66
2022/10/07 07:44:58;;;;;;;15.07;3.63;;;11.60;99.90;;;;;;5112350;27;20098;-67
2022/10/07 07:47:25;;;;;;;24.02;3.22;;;11.70;99.90;;;;;;5138214;27;20042;-67
2022/10/07 07:49:51;;;;;;;17.90;4.05;;;11.80;99.90;;;;;;5128940;27;20053;-67
2022/10/07 07:52:17;;;;;;;20.48;3.35;;;12.00;99.90;;;;;;5129280;27;20043;-66
2022/10/07 07:54:43;;;;;;;18.85;3.55;;;12.10;99.90;;;;;;5147942;27;20385;-66
2022/10/07 07:57:09;;;;;;;16.58;3.58;;;12.30;99.90;;;;;;5129402;27;20046;-66
2022/10/07 07:59:36;;;;;;;18.27;3.45;;;12.40;99.90;;;;;;5147822;27;20208;-66
2022/10/07 08:02:03;;;;;;;19.27;3.53;;;12.50;99.90;;;;;;5127141;27;20582;-66
2022/10/07 08:04:29;;;;;;;25.25;3.70;;;12.60;99.90;;;;;;5129209;27;20130;-66
2022/10/07 08:06:55;;;;;;;11.90;3.38;;;12.80;99.90;;;;;;5111641;27;20050;-67
2022/10/07 08:09:21;;;;;;;22.45;3.65;;;12.90;99.90;;;;;;5125002;27;20042;-67
2022/10/07 08:11:47;;;;;;;19.65;3.50;;;13.00;99.90;;;;;;5119658;27;20035;-66
2022/10/07 08:14:15;;;;;;;20.90;3.30;;;13.10;99.90;;;;;;5147847;27;20454;-67
2022/10/07 08:16:44;;;;;;;11.65;2.63;;;13.10;99.90;;;;;;5148116;27;20539;-85
2022/10/07 08:19:14;;;;;;;16.20;3.20;;;13.20;99.90;;;;;;5129451;27;20051;-66
2022/10/07 08:21:40;;;;;;;14.70;3.07;;;13.30;99.90;;;;;;5146558;27;20047;-66
2022/10/07 08:24:08;;;;;;;14.23;3.17;;;13.50;99.90;;;;;;5146594;27;20276;-67
2022/10/07 08:26:36;;;;;;;27.20;3.92;;;13.60;99.90;;;;;;5147418;27;20043;-67
2022/10/07 08:29:02;;;;;;;17.15;3.85;;;13.70;99.90;;;;;;5148616;27;20393;-66
2022/10/07 08:31:28;;;;;;;18.25;3.30;;;13.80;99.90;;;;;;5147278;27;20115;-66
2022/10/07 08:34:01;;;;;;;18.73;3.30;;;13.90;99.90;;;;;;5147670;27;20130;-67
2022/10/07 08:36:28;;;;;;;14.50;3.13;;;14.00;99.90;;;;;;5128283;27;20389;-66
2022/10/07 08:38:54;;;;;;;15.88;3.15;;;14.00;99.90;;;;;;5112114;27;20046;-66
2022/10/07 08:41:32;;;;;;;15.23;4.18;;;14.00;99.90;;;;;;5147184;27;20176;-67
2022/10/07 08:44:16;;;;;;;20.90;3.17;;;14.00;99.90;;;;;;5148221;27;20050;-66
2022/10/07 08:46:51;;;;;;;14.05;3.03;;;14.00;99.90;;;;;;5127896;27;20045;-67
2022/10/07 08:49:24;;;;;;;15.27;3.03;;;14.00;99.90;;;;;;5128851;27;20047;-67
2022/10/07 08:51:59;;;;;;;18.70;2.95;;;14.10;99.90;;;;;;5147788;27;20050;-68
2022/10/07 08:54:32;;;;;;;19.17;3.17;;;14.20;99.90;;;;;;5146757;27;20049;-67
2022/10/07 08:57:08;;;;;;;12.57;2.47;;;14.20;99.90;;;;;;5147551;27;20429;-66
2022/10/07 08:59:34;;;;;;;21.40;4.13;;;14.20;99.90;;;;;;5147431;27;20048;-67
2022/10/07 09:02:21;;;;;;;20.77;3.47;;;14.30;99.90;;;;;;5147714;27;20043;-67
2022/10/07 09:05:15;;;;;;;20.17;3.42;;;14.40;99.90;;;;;;5147944;27;20427;-83
2022/10/07 09:07:48;;;;;;;14.85;3.10;;;14.40;99.90;;;;;;5121076;27;20457;-66
2022/10/07 09:10:34;;;;;;;14.35;3.00;;;14.40;99.90;;;;;;5135789;27;20050;-67
2022/10/07 09:13:15;;;;;;;13.60;2.63;;;14.50;99.90;;;;;;5101416;27;20042;-88
2022/10/07 09:15:46;;;;;;;19.38;2.65;;;14.50;99.90;;;;;;5128382;27;20519;-66
2022/10/07 09:18:22;;;;;;;22.83;2.67;;;14.60;99.90;;;;;;5129033;27;20041;-66
2022/10/07 09:20:52;;;;;;;15.25;2.88;;;14.60;99.90;;;;;;5146983;27;20059;-67
2022/10/07 09:23:20;;;;;;;;;;;14.70;99.90;;;;;;5130167;27;20047;-68
2022/10/07 09:25:45;;;;;;;11.25;3.13;;;14.80;99.90;;;;;;5127044;27;19919;-67
2022/10/07 09:28:14;;;;;;;24.30;3.95;;;14.90;99.90;;;;;;5149715;27;20597;-67
2022/10/07 09:30:41;;;;;;;22.75;2.95;;;14.90;99.90;;;;;;5128015;27;20042;-67
2022/10/07 09:33:20;;;;;;;18.58;2.97;;;15.10;99.90;;;;;;5107141;27;20046;-67
2022/10/07 09:36:07;;;;;;;18.42;3.47;;;15.20;99.90;;;;;;5130137;27;20548;-66
2022/10/07 09:38:42;;;;;;;21.77;3.22;;;15.30;99.90;;;;;;5120526;27;20035;-67
2022/10/07 09:41:29;;;;;;;17.70;2.72;;;15.40;99.90;;;;;;5137574;27;20420;-67
2022/10/07 09:43:57;;;;;;;16.63;3.28;;;15.50;99.90;;;;;;5126177;27;20043;-68
2022/10/07 09:46:47;;;;;;;14.82;2.83;;;15.60;99.90;;;;;;5144087;27;20408;-78
2022/10/07 09:49:28;;;;;;;16.52;2.45;;;15.70;99.90;;;;;;5145490;27;20046;-67
2022/10/07 09:52:01;;;;;;;16.55;2.92;;;15.80;99.90;;;;;;5144388;27;20527;-67
2022/10/07 09:54:29;;;;;;;14.18;2.22;;;15.90;99.90;;;;;;5145321;27;20051;-67
2022/10/07 09:56:58;;;;;;;16.17;2.53;;;15.90;99.90;;;;;;5124895;27;20455;-70
2022/10/07 09:59:27;;;;;;;15.43;2.42;;;16.00;99.90;;;;;;5114735;27;20088;-68
2022/10/07 10:01:52;;;;;;;12.77;2.50;;;16.00;99.90;;;;;;5133023;27;20070;-67
2022/10/07 10:04:32;;;;;;;21.92;3.28;;;16.00;99.90;;;;;;5093322;27;20093;-67
2022/10/07 10:07:06;;;;;;;17.02;4.03;;;16.10;99.90;;;;;;5111535;27;20370;-67
2022/10/07 10:09:33;;;;;;;14.85;2.97;;;16.10;99.90;;;;;;5144379;27;20437;-68
2022/10/07 10:12:13;;;;;;;19.48;3.70;;;16.20;99.90;;;;;;5128254;27;20433;-67
2022/10/07 10:14:54;;;;;;;12.20;2.65;;;16.20;99.90;;;;;;5127099;27;20049;-67
2022/10/07 10:17:39;;;;;;;13.48;3.67;;;16.20;99.90;;;;;;5101385;27;20395;-67
2022/10/07 10:20:34;;;;;;;13.13;3.35;;;16.30;99.90;;;;;;5111251;27;20043;-67
2022/10/07 10:23:21;;;;;;;16.02;2.80;;;16.30;99.90;;;;;;5121658;27;20401;-67
2022/10/07 10:26:26;;;;;;;19.05;2.47;;;16.30;99.90;;;;;;5125834;27;20070;-68
2022/10/07 10:29:00;;;;;;;12.93;2.60;;;16.40;99.90;;;;;;5099108;27;20059;-66
2022/10/07 10:32:00;;;;;;;15.57;2.53;;;16.50;99.90;;;;;;5119807;27;20050;-67
2022/10/07 10:34:48;;;;;;;;;;;16.50;99.90;;;;;;5123399;27;20392;-67
2022/10/07 10:37:19;;;;;;;15.50;2.90;;;16.60;99.90;;;;;;5122671;27;20019;-67
2022/10/07 10:40:12;;;;;;;21.38;2.40;;;16.70;99.90;;;;;;5109120;27;21315;-67
2022/10/07 10:42:58;;;;;;;11.88;2.55;;;16.70;99.90;;;;;;5120693;27;20042;-72
2022/10/07 10:45:31;;;;;;;18.90;3.63;;;16.80;99.90;;;;;;5119882;27;20035;-68
2022/10/07 10:48:00;;;;;;;15.70;2.47;;;16.80;99.90;;;;;;5134293;27;20046;-67
2022/10/07 10:50:44;;;;;;;13.57;2.47;;;16.70;99.90;;;;;;5111579;27;20452;-83
2022/10/07 10:53:28;;;;;;;20.52;2.97;;;16.80;99.90;;;;;;5111890;27;20063;-78
2022/10/07 10:56:06;;;;;;;14.85;2.38;;;16.70;99.90;;;;;;5130207;27;20042;-67
2022/10/07 10:59:05;;;;;;;18.30;3.40;;;16.60;99.90;;;;;;5149680;27;20095;-71
2022/10/07 11:01:38;;;;;;;13.93;2.45;;;16.70;99.90;;;;;;5120058;27;20107;-67
2022/10/07 11:04:16;;;;;;;14.70;2.85;;;16.80;99.90;;;;;;5131169;27;20088;-67
2022/10/07 11:06:47;;;;;;;15.85;2.80;;;16.90;99.50;;;;;;5149834;27;20349;-67
2022/10/07 11:09:18;;;;;;;15.90;3.15;;;17.10;99.90;;;;;;5145901;27;20031;-66
2022/10/07 11:11:44;;;;;;;12.65;2.40;;;17.10;99.90;;;;;;5147585;27;20038;-68
2022/10/07 11:14:16;;;;;;;11.32;2.83;;;17.30;99.30;;;;;;5149759;27;20102;-78
2022/10/07 11:16:46;;;;;;;16.92;2.65;;;17.30;97.40;;;;;;5130858;27;20497;-67
2022/10/07 11:19:25;;;;;;;16.08;2.95;;;17.40;97.60;;;;;;5131201;27;20129;-67
2022/10/07 11:21:58;;;;;;;14.63;2.37;;;17.50;95.30;;;;;;5130385;27;20069;-67
2022/10/07 11:24:25;;;;;;;16.70;2.83;;;17.50;96.20;;;;;;5130976;27;20110;-67
2022/10/07 11:27:18;;;;;;;12.20;2.50;;;17.50;94.40;;;;;;5149059;27;20047;-67
2022/10/07 11:29:54;;;;;;;18.30;3.08;;;17.50;96.60;;;;;;5129882;27;20412;-67
2022/10/07 11:32:45;;;;;;;17.33;3.15;;;17.60;95.80;;;;;;5129742;27;20050;-67
2022/10/07 11:35:31;;;;;;;11.35;2.40;;;17.80;97.90;;;;;;5130255;27;20552;-67
2022/10/07 11:38:05;;;;;;;15.77;2.78;;;17.90;94.10;;;;;;5144721;27;20066;-67
2022/10/07 11:40:33;;;;;;;15.18;3.22;;;18.00;95.80;;;;;;5149709;27;20467;-67
2022/10/07 11:43:17;;;;;;;9.10;2.20;;;18.00;93.60;;;;;;5125848;27;20074;-67
2022/10/07 11:45:51;;;;;;;13.77;2.70;;;18.10;91.90;;;;;;5142866;27;20042;-67
2022/10/07 11:48:40;;;;;;;19.23;3.28;;;18.10;91.40;;;;;;5149001;27;20034;-67
2022/10/07 11:51:08;;;;;;;12.80;2.50;;;18.10;89.80;;;;;;5130470;27;20054;-68
2022/10/07 11:53:38;;;;;;;10.95;2.28;;;18.00;87.70;;;;;;5148772;27;20042;-68
2022/10/07 11:56:19;;;;;;;10.48;2.25;;;18.00;90.40;;;;;;5148510;27;20045;-91
2022/10/07 11:58:47;;;;;;;16.00;2.53;;;18.00;91.70;;;;;;5129964;27;20060;-68
2022/10/07 12:01:27;;;;;;;14.25;2.90;;;18.10;91.70;;;;;;5129940;27;20107;-69
2022/10/07 12:04:28;;;;;;;14.98;2.33;;;18.10;90.50;;;;;;5129974;27;20054;-68
2022/10/07 12:07:30;;;;;;;13.13;2.50;;;18.20;87.70;;;;;;5144699;27;20047;-69
2022/10/07 12:10:05;;;;;;;12.75;2.20;;;18.00;86.50;;;;;;5138324;27;20385;-69
2022/10/07 12:12:44;;;;;;;13.50;2.75;;;18.00;89.20;;;;;;5126834;27;20073;-69
2022/10/07 12:15:35;;;;;;;14.90;1.92;;;18.00;90.50;;;;;;5148556;27;20475;-82
2022/10/07 12:18:04;;;;;;;11.98;2.63;;;18.00;92.20;;;;;;5129845;27;20179;-69
2022/10/07 12:20:43;;;;;;;15.57;2.60;;;17.90;91.20;;;;;;5113469;27;20055;-68
2022/10/07 12:23:19;;;;;;;9.75;2.03;;;17.90;91.20;;;;;;5129282;27;20194;-85
2022/10/07 12:25:48;;;;;;;12.02;2.00;;;17.80;91.90;;;;;;5129984;27;20545;-68
2022/10/07 12:28:40;;;;;;;11.32;2.47;;;17.70;91.80;;;;;;5148558;27;20113;-68
2022/10/07 12:31:26;;;;;;;8.20;2.00;;;17.60;92.90;;;;;;5129815;27;20061;-68
2022/10/07 12:34:08;;;;;;;8.63;1.95;;;17.60;91.00;;;;;;5148040;27;20440;-68
2022/10/07 12:36:37;;;;;;;6.85;1.67;;;17.50;91.70;;;;;;5128213;27;20057;-68
2022/10/07 12:39:02;;;;;;;8.52;1.85;;;17.50;92.30;;;;;;5148448;27;20042;-68
2022/10/07 12:41:42;;;;;;;6.68;1.77;;;17.50;88.20;;;;;;5129848;27;20095;-69
2022/10/07 12:44:32;;;;;;;11.65;1.58;;;17.40;86.10;;;;;;5111132;27;20035;-68
2022/10/07 12:47:10;;;;;;;6.97;1.83;;;17.40;87.30;;;;;;5134082;27;20555;-68
2022/10/07 12:49:47;;;;;;;8.55;1.63;;;17.30;90.10;;;;;;5129276;27;20096;-68
2022/10/07 12:52:32;;;;;;;8.90;1.65;;;17.30;90.20;;;;;;5134403;27;20046;-68
2022/10/07 12:55:12;;;;;;;12.90;2.08;;;17.30;92.00;;;;;;5130599;27;20463;-68
2022/10/07 12:57:41;;;;;;;13.27;2.70;;;17.30;92.90;;;;;;5130964;27;20046;-68
2022/10/07 13:00:21;;;;;;;15.38;2.30;;;17.30;93.30;;;;;;5149653;27;20476;-68
2022/10/07 13:03:11;;;;;;;7.63;2.05;;;17.40;94.50;;;;;;5149357;27;20042;-68
2022/10/07 13:05:55;;;;;;;9.02;1.50;;;17.50;95.70;;;;;;5149297;27;20038;-68
2022/10/07 13:08:40;;;;;;;9.73;1.88;;;17.60;93.40;;;;;;5148294;27;20099;-68
2022/10/07 13:11:38;;;;;;;5.97;1.65;;;17.60;91.10;;;;;;5127949;27;20043;-68
2022/10/07 13:14:16;;;;;;;8.73;2.05;;;17.60;89.60;;;;;;5142391;27;20524;-68
2022/10/07 13:16:52;;;;;;;12.63;2.50;;;17.70;88.70;;;;;;5127600;27;20083;-68
2022/10/07 13:19:18;;;;;;;10.48;2.22;;;17.60;87.90;;;;;;5125986;27;20046;-69
2022/10/07 13:22:12;;;;;;;4.38;1.70;;;17.60;91.80;;;;;;5126378;27;20353;-68